Decoded Metar for KELM (ELMIRA in NY, USA) (IATA:ELM) | Meteo·Mobile Aviation Weather
aviador You're here:

KELM Decoded Metar

ELMIRA in NY, USA
Report Time2019-02-17 04:53:00
UTC Time2019-02-17 05:33:01
Flight Rules mvfr MVFR
Wind280° at 03 kt
W.Decomp.*RWY 28: 2.9 kt HW 0.6 kt RCW
RWY 24: 1.8 kt HW 2.4 kt RCW
RWY 23: 1.4 kt HW 2.6 kt RCW
W.Rank280° ranks 7
Current wind is below 280° avg. (7.8)
Visibility9999 m
Phenomena:N/A
Clouds:Overcast 026 Hf
Expected CloudBase > 1,600 ft AGL from Temp-Dew spread
Ceiling2,600 ft
Temp-6°C (ISA -19)
Dew Point-10°C (74% RH)
AAT-10.1°C
QNH1019 hPa
Density Alt-1,522 ft
Elevation991 ft
Report Wrong Elevation
Raw Report
KELM 170453Z AUTO 28003KT 10SM OVC026 M06/M10 A3008 RMK AO2 SLP200
T10611100 400111061=

Extra information for KELM:More info

Metar Taf Metar & Taf Last 4 Metars F.Rules Stats Wind Profile Meteogram Temp Stats Airport Information Weather charts Add Link Nearby VenuesMetar ALERT Operation Metar Decoded Social comments

AIRNAV info for KELM